Time;durP1;ratioP1;P1;durP2;ratioP2;P2;SDS_P1;SDS_P2;PMS_P1;PMS_P2;Temp;Humidity;BMP_temperature;BMP_pressure;BME280_temperature;BME280_humidity;BME280_pressure;Samples;Min_cycle;Max_cycle;Signal;HPM_P1;HPM_P2
2021/06/23 00:01:01;;;;;;;14.63;9.57;;;;;;;0.01;0.00;59042.03;10360624;28;20092;-55
2021/06/23 00:06:00;;;;;;;12.85;8.02;;;;;;;0.01;0.00;59042.03;10359857;28;20044;-57
2021/06/23 00:11:00;;;;;;;15.75;8.57;;;;;;;0.01;0.00;59042.03;10359816;28;20048;-57
2021/06/23 00:15:59;;;;;;;11.82;7.70;;;;;;;0.01;0.00;59042.03;10358857;28;20536;-58
2021/06/23 00:20:59;;;;;;;9.57;7.18;;;;;;;0.01;0.00;59042.03;10360472;28;20063;-58
2021/06/23 00:25:58;;;;;;;12.38;6.93;;;;;;;0.01;0.00;59042.03;10359672;28;20052;-57
2021/06/23 00:30:57;;;;;;;10.68;6.75;;;;;;;0.01;0.00;59042.03;10358240;28;20494;-58
2021/06/23 00:35:56;;;;;;;10.45;7.25;;;;;;;0.01;0.00;59042.03;10358445;28;20083;-58
2021/06/23 00:40:56;;;;;;;6.80;6.10;;;;;;;0.01;0.00;59042.03;10359694;28;20047;-57
2021/06/23 00:45:55;;;;;;;13.85;6.63;;;;;;;0.01;0.00;59042.03;10340380;28;20052;-58
2021/06/23 00:50:55;;;;;;;10.63;6.60;;;;;;;0.01;0.00;59042.03;10358518;28;20281;-58
2021/06/23 00:56:06;;;;;;;9.20;7.38;;;;;;;0.01;0.00;59042.03;10358933;28;20470;-58
2021/06/23 01:01:05;;;;;;;9.68;7.85;;;;;;;0.01;0.00;59042.03;10358494;28;20134;-58
2021/06/23 01:06:05;;;;;;;10.73;7.60;;;;;;;0.01;0.00;59042.03;10339434;28;20090;-54
2021/06/23 01:11:08;;;;;;;13.88;8.25;;;;;;;0.01;0.00;59042.03;10339642;28;20063;-55
2021/06/23 01:16:12;;;;;;;13.35;7.03;;;;;;;0.01;0.00;59042.03;10357711;28;20534;-55
2021/06/23 01:21:11;;;;;;;8.55;7.63;;;;;;;0.01;0.00;59042.03;10357672;28;20051;-55
2021/06/23 01:26:12;;;;;;;12.40;7.38;;;;;;;0.01;0.00;59042.03;10338925;28;20435;-53
2021/06/23 01:31:17;;;;;;;7.93;7.13;;;;;;;0.01;0.00;59042.03;10357406;28;20425;-58
2021/06/23 01:36:19;;;;;;;10.63;6.30;;;;;;;0.01;0.00;59042.03;10357826;28;20072;-54
2021/06/23 01:41:22;;;;;;;10.07;6.53;;;;;;;0.01;0.00;59042.03;10338667;28;20047;-58
2021/06/23 01:46:21;;;;;;;12.45;6.53;;;;;;;0.01;0.00;59042.03;10337866;28;20051;-57
2021/06/23 01:51:21;;;;;;;10.75;7.00;;;;;;;0.01;0.00;59042.03;10339118;28;20055;-56
2021/06/23 01:56:25;;;;;;;11.50;7.10;;;;;;;0.01;0.00;59042.03;10338393;28;20070;-56
2021/06/23 02:01:40;;;;;;;12.90;6.90;;;;;;;0.01;0.00;59042.03;10338442;28;20052;-58
2021/06/23 02:06:53;;;;;;;8.23;5.75;;;;;;;0.01;0.00;59042.03;10338132;28;20047;-58
2021/06/23 02:12:04;;;;;;;11.05;6.13;;;;;;;0.01;0.00;59042.03;10337679;28;20055;-53
2021/06/23 02:17:08;;;;;;;13.10;7.35;;;;;;;0.01;0.00;59042.03;10356148;28;20091;-54
2021/06/23 02:22:16;;;;;;;10.02;6.63;;;;;;;0.01;0.00;59042.03;10337814;28;20059;-55
2021/06/23 02:27:21;;;;;;;7.70;6.63;;;;;;;0.01;0.00;59042.03;10337911;28;20417;-55
2021/06/23 02:32:27;;;;;;;9.35;6.70;;;;;;;0.01;0.00;59042.03;10337326;28;20056;-55
2021/06/23 02:37:28;;;;;;;10.50;6.57;;;;;;;0.01;0.00;59042.03;10337838;28;20079;-52
2021/06/23 02:42:30;;;;;;;13.43;7.05;;;;;;;0.01;0.00;59042.03;10355726;28;20417;-56
2021/06/23 02:47:31;;;;;;;8.10;7.28;;;;;;;0.01;0.00;59042.03;10337718;28;20052;-53
2021/06/23 02:52:40;;;;;;;13.23;7.18;;;;;;;0.01;0.00;59042.03;10355593;28;20044;-54
2021/06/23 02:57:40;;;;;;;11.18;6.13;;;;;;;0.01;0.00;59042.03;10357915;28;20083;-52
2021/06/23 03:02:39;;;;;;;7.90;6.95;;;;;;;0.01;0.00;59042.03;10362376;28;20183;-53
2021/06/23 03:07:38;;;;;;;11.18;6.53;;;;;;;0.01;0.00;59042.03;10344282;28;20048;-55
2021/06/23 03:12:43;;;;;;;10.60;6.60;;;;;;;0.01;0.00;59042.03;10343922;28;20059;-52
2021/06/23 03:18:02;;;;;;;24.65;14.75;;;;;;;0.01;0.00;59042.03;10363202;28;20084;-55
2021/06/23 03:23:02;;;;;;;13.40;9.52;;;;;;;0.01;0.00;59042.03;10343107;28;20073;-55
2021/06/23 03:28:05;;;;;;;20.30;8.38;;;;;;;0.01;0.00;59042.03;10360609;28;20048;-55
2021/06/23 03:33:07;;;;;;;12.32;8.63;;;;;;;0.01;0.00;59042.03;10343087;28;20048;-55
2021/06/23 03:38:25;;;;;;;17.30;10.73;;;;;;;0.01;0.00;59042.03;10372566;28;20084;-55
2021/06/23 03:43:27;;;;;;;13.98;9.65;;;;;;;0.01;0.00;59042.03;10343024;28;20059;-55
2021/06/23 03:48:27;;;;;;;11.43;8.90;;;;;;;0.01;0.00;59042.03;10342425;28;20073;-54
2021/06/23 03:53:32;;;;;;;21.55;10.18;;;;;;;0.01;0.00;59042.03;10360783;28;20059;-55
2021/06/23 03:58:37;;;;;;;15.60;10.23;;;;;;;0.01;0.00;59042.03;10342085;28;20063;-50
2021/06/23 04:03:35;;;;;;;19.65;12.40;;;;;;;0.01;0.00;59042.03;10341776;28;20294;-54
2021/06/23 04:08:53;;;;;;;18.13;12.20;;;;;;;0.01;0.00;59042.03;10369096;28;20420;-54
2021/06/23 04:13:54;;;;;;;16.63;12.95;;;;;;;0.01;0.00;59042.03;10358812;28;20052;-54
2021/06/23 04:18:53;;;;;;;23.98;12.18;;;;;;;0.01;0.00;59042.03;10340743;28;20109;-54
2021/06/23 04:23:53;;;;;;;18.70;11.45;;;;;;;0.01;0.00;59042.03;10341114;28;20048;-51
2021/06/23 04:28:54;;;;;;;10.95;6.95;;;;;;;0.01;0.00;59042.03;10358149;28;20063;-55
2021/06/23 04:33:56;;;;;;;;;;;;;;;0.01;0.00;59042.03;10340335;28;20055;-52
2021/06/23 04:38:56;;;;;;;14.65;7.38;;;;;;;0.01;0.00;59042.03;10339311;28;19962;-53
2021/06/23 04:43:57;;;;;;;9.65;7.22;;;;;;;0.01;0.00;59042.03;10353198;28;20492;-55
2021/06/23 04:48:56;;;;;;;15.80;7.32;;;;;;;0.01;0.00;59042.03;10333611;28;20071;-55
2021/06/23 04:54:15;;;;;;;14.57;10.68;;;;;;;0.01;0.00;59042.03;10353755;28;20513;-55
2021/06/23 04:59:15;;;;;;;9.02;7.28;;;;;;;0.01;0.00;59042.03;10352017;28;20411;-55
2021/06/23 05:04:14;;;;;;;13.55;5.95;;;;;;;0.01;0.00;59042.03;10333104;28;20080;-54
2021/06/23 05:09:13;;;;;;;7.75;6.30;;;;;;;0.01;0.00;59042.03;10350079;28;20524;-48
2021/06/23 05:14:12;;;;;;;10.90;6.05;;;;;;;0.01;0.00;59042.03;10355491;28;20512;-55
2021/06/23 05:19:13;;;;;;;9.27;6.05;;;;;;;0.01;0.00;59042.03;10356395;28;20052;-57
2021/06/23 05:24:11;;;;;;;14.50;6.80;;;;;;;0.01;0.00;59042.03;10354453;28;20048;-56
2021/06/23 05:29:11;;;;;;;13.32;6.43;;;;;;;0.01;0.00;59042.03;10343413;28;20063;-55
2021/06/23 05:34:09;;;;;;;10.05;7.10;;;;;;;0.01;0.00;59042.03;10351592;28;20076;-51
2021/06/23 05:39:10;;;;;;;11.35;8.18;;;;;;;0.01;0.00;59042.03;10347378;28;20060;-54
2021/06/23 05:44:09;;;;;;;9.35;7.05;;;;;;;0.01;0.00;59042.03;10319518;28;20060;-50
2021/06/23 05:49:07;;;;;;;8.50;6.35;;;;;;;0.01;0.00;59042.03;10355586;28;20051;-52
2021/06/23 05:54:06;;;;;;;11.93;6.38;;;;;;;0.01;0.00;59042.03;10355220;28;20051;-54
2021/06/23 05:59:06;;;;;;;12.10;6.03;;;;;;;0.01;0.00;59042.03;10355724;28;20086;-49
2021/06/23 06:04:05;;;;;;;10.70;6.10;;;;;;;0.01;0.00;59042.03;10355737;28;20051;-55
2021/06/23 06:09:04;;;;;;;7.20;6.07;;;;;;;0.01;0.00;59042.03;10354562;28;20087;-55
2021/06/23 06:14:04;;;;;;;9.52;5.80;;;;;;;0.01;0.00;59042.03;10316545;28;20501;-53
2021/06/23 06:19:04;;;;;;;6.93;5.45;;;;;;;0.01;0.00;59042.03;10355326;28;20080;-52
2021/06/23 06:24:03;;;;;;;12.32;6.68;;;;;;;0.01;0.00;59042.03;10356724;28;20067;-52
2021/06/23 06:29:03;;;;;;;10.77;7.07;;;;;;;0.01;0.00;59042.03;10348362;28;20060;-54
2021/06/23 06:34:01;;;;;;;14.98;7.82;;;;;;;0.01;0.00;59042.03;10321361;28;20580;-51
2021/06/23 06:39:02;;;;;;;13.02;6.25;;;;;;;0.01;0.00;59042.03;10321721;28;20087;-56
2021/06/23 06:44:01;;;;;;;10.82;6.53;;;;;;;0.01;0.00;59042.03;10320167;28;20051;-56
2021/06/23 06:48:59;;;;;;;9.88;8.70;;;;;;;0.01;0.00;59042.03;10320149;28;20083;-54
2021/06/23 06:54:02;;;;;;;15.52;10.30;;;;;;;0.01;0.00;59042.03;10321432;28;20497;-56
2021/06/23 06:59:05;;;;;;;12.13;6.45;;;;;;;0.01;0.00;59042.03;10318509;28;20512;-49
2021/06/23 07:04:04;;;;;;;11.00;6.57;;;;;;;0.01;0.00;59042.03;10321069;28;20043;-56
2021/06/23 07:09:07;;;;;;;12.43;7.32;;;;;;;0.01;0.00;59042.03;10318422;28;20506;-53
2021/06/23 07:14:07;;;;;;;13.55;8.52;;;;;;;0.01;0.00;59042.03;10318037;28;20075;-50
2021/06/23 07:19:06;;;;;;;10.15;8.27;;;;;;;0.01;0.00;59042.03;10319566;28;20076;-49
2021/06/23 07:24:07;;;;;;;14.18;7.97;;;;;;;0.01;0.00;59042.03;10298954;28;20083;-48
2021/06/23 07:29:06;;;;;;;13.07;8.85;;;;;;;0.01;0.00;59042.03;10326405;28;20075;-51
2021/06/23 07:34:20;;;;;;;12.32;8.07;;;;;;;0.01;0.00;59042.03;10351686;28;20078;-52
2021/06/23 07:39:21;;;;;;;8.68;7.78;;;;;;;0.01;0.00;59042.03;10353354;28;20080;-55
2021/06/23 07:44:24;;;;;;;11.30;7.90;;;;;;;0.01;0.00;59042.03;10359930;28;20040;-53
2021/06/23 07:49:24;;;;;;;13.05;7.53;;;;;;;0.01;0.00;59042.03;10345751;28;20104;-54
2021/06/23 07:54:33;;;;;;;12.88;7.35;;;;;;;0.01;0.00;59042.03;10328333;28;20083;-50
2021/06/23 08:10:17;;;;;;;10.15;5.90;;;;;;;0.01;0.00;59042.03;10359816;28;20412;-55
2021/06/23 08:15:15;;;;;;;7.80;6.13;;;;;;;0.01;0.00;59042.03;10358640;28;20497;-56
2021/06/23 08:20:15;;;;;;;11.35;5.15;;;;;;;0.01;0.00;59042.03;10359150;28;20076;-53
2021/06/23 08:25:16;;;;;;;9.85;6.15;;;;;;;0.01;0.00;59042.03;10355270;28;20452;-55
2021/06/23 08:30:15;;;;;;;12.52;6.05;;;;;;;0.01;0.00;59042.03;10354751;28;20079;-55
2021/06/23 08:35:15;;;;;;;13.50;6.13;;;;;;;0.01;0.00;59042.03;10355032;28;20070;-56
2021/06/23 08:40:17;;;;;;;11.85;6.63;;;;;;;0.01;0.00;59042.03;10326085;28;20071;-55
2021/06/23 08:45:16;;;;;;;8.93;6.40;;;;;;;0.01;0.00;59042.03;10340115;28;20489;-56
2021/06/23 08:50:17;;;;;;;8.70;5.95;;;;;;;0.01;0.00;59042.03;10357013;28;20070;-54
2021/06/23 08:55:20;;;;;;;9.23;5.68;;;;;;;0.01;0.00;59042.03;10357027;28;20051;-56
2021/06/23 09:00:21;;;;;;;10.18;6.63;;;;;;;0.01;0.00;59042.03;10342113;28;20075;-60
2021/06/23 09:05:20;;;;;;;11.05;5.95;;;;;;;0.01;0.00;59042.03;10312548;28;20088;-57
2021/06/23 09:10:37;;;;;;;9.88;5.53;;;;;;;0.01;0.00;59042.03;10356372;28;20076;-54
2021/06/23 09:15:40;;;;;;;9.90;5.40;;;;;;;0.01;0.00;59042.03;10356478;28;20083;-56
2021/06/23 09:20:39;;;;;;;11.30;5.90;;;;;;;0.01;0.00;59042.03;10356575;28;20094;-56
2021/06/23 09:25:44;;;;;;;8.60;5.95;;;;;;;0.01;0.00;59042.03;10356395;28;20067;-56
2021/06/23 09:30:45;;;;;;;11.23;4.63;;;;;;;0.01;0.00;59042.03;10356213;28;20486;-55
2021/06/23 09:35:48;;;;;;;7.82;5.15;;;;;;;0.01;0.00;59042.03;10356067;28;20509;-55
2021/06/23 09:41:19;;;;;;;6.43;4.80;;;;;;;0.01;0.00;59042.03;10315186;28;20471;-56
2021/06/23 09:46:32;;;;;;;9.48;4.45;;;;;;;0.01;0.00;59042.03;10314714;28;20494;-55
2021/06/23 09:51:39;;;;;;;13.27;4.43;;;;;;;0.01;0.00;59042.03;10296963;28;20048;-56
2021/06/23 09:56:41;;;;;;;10.15;5.53;;;;;;;0.01;0.00;59042.03;10314860;28;20099;-56
2021/06/23 10:01:41;;;;;;;7.23;5.30;;;;;;;0.01;0.00;59042.03;10315024;28;20082;-54
2021/06/23 10:06:43;;;;;;;14.32;4.50;;;;;;;0.01;0.00;59042.03;10318123;28;20476;-55
2021/06/23 10:11:43;;;;;;;10.82;4.28;;;;;;;0.01;0.00;59042.03;10323292;28;20076;-55
2021/06/23 10:16:43;;;;;;;9.40;4.43;;;;;;;0.01;0.00;59042.03;10321762;28;20068;-54
2021/06/23 10:21:43;;;;;;;12.57;4.47;;;;;;;0.01;0.00;59042.03;10309820;28;20068;-55
2021/06/23 10:26:48;;;;;;;17.63;4.47;;;;;;;0.01;0.00;59042.03;10319525;28;20494;-56
2021/06/23 10:31:48;;;;;;;9.77;4.57;;;;;;;0.01;0.00;59042.03;10293161;28;20503;-55
2021/06/23 10:36:49;;;;;;;17.40;4.70;;;;;;;0.01;0.00;59042.03;10309732;28;20068;-54
2021/06/23 10:41:52;;;;;;;11.82;4.13;;;;;;;0.01;0.00;59042.03;10321804;28;20406;-55
2021/06/23 10:46:52;;;;;;;;;;;;;;;0.01;0.00;59042.03;10319063;28;20056;-55
2021/06/23 10:51:51;;;;;;;10.80;4.70;;;;;;;0.01;0.00;59042.03;10319820;28;19978;-55
2021/06/23 10:56:52;;;;;;;11.27;5.10;;;;;;;0.01;0.00;59042.03;10319261;28;20091;-57
2021/06/23 11:02:09;;;;;;;11.95;4.78;;;;;;;0.01;0.00;59042.03;10320599;28;20400;-57
2021/06/23 11:07:39;;;;;;;10.88;4.72;;;;;;;0.01;0.00;59042.03;10318712;28;20080;-57
2021/06/23 11:12:48;;;;;;;10.85;4.90;;;;;;;0.01;0.00;59042.03;10320364;28;20453;-57
2021/06/23 11:17:49;;;;;;;14.35;4.60;;;;;;;0.01;0.00;59042.03;10318511;28;20087;-56
2021/06/23 11:22:48;;;;;;;9.38;4.50;;;;;;;0.01;0.00;59042.03;10320914;28;20096;-56
2021/06/23 11:28:21;;;;;;;10.55;5.22;;;;;;;0.01;0.00;59042.03;10320763;28;20047;-57
2021/06/23 11:33:49;;;;;;;22.63;5.53;;;;;;;0.01;0.00;59042.03;10319980;28;20055;-58
2021/06/23 11:38:51;;;;;;;15.20;5.03;;;;;;;0.01;0.00;59042.03;10319644;28;20076;-57
2021/06/23 11:43:52;;;;;;;11.38;5.05;;;;;;;0.01;0.00;59042.03;10320373;28;20045;-56
2021/06/23 11:48:51;;;;;;;16.98;5.03;;;;;;;0.01;0.00;59042.03;10319124;28;20052;-55
2021/06/23 11:53:51;;;;;;;14.52;4.90;;;;;;;0.01;0.00;59042.03;10319404;28;20048;-56
2021/06/23 11:58:52;;;;;;;20.35;5.47;;;;;;;0.01;0.00;59042.03;10319628;28;20076;-55
2021/06/23 12:03:52;;;;;;;16.65;5.55;;;;;;;0.01;0.00;59042.03;10319819;28;20040;-55
2021/06/23 12:08:50;;;;;;;22.13;6.38;;;;;;;0.01;0.00;59042.03;10319301;28;20041;-55
2021/06/23 12:13:49;;;;;;;18.00;4.90;;;;;;;0.01;0.00;59042.03;10317038;28;20052;-54
2021/06/23 12:18:50;;;;;;;19.77;5.30;;;;;;;0.01;0.00;59042.03;10315588;28;20075;-57
2021/06/23 12:23:49;;;;;;;15.55;5.38;;;;;;;0.01;0.00;59042.03;10305705;28;20072;-56
2021/06/23 12:28:48;;;;;;;19.95;4.78;;;;;;;0.01;0.00;59042.03;10314228;28;20469;-55
2021/06/23 12:33:47;;;;;;;18.08;5.57;;;;;;;0.01;0.00;59042.03;10317165;28;20504;-55
2021/06/23 12:38:47;;;;;;;22.48;5.78;;;;;;;0.01;0.00;59042.03;10298982;28;20045;-50
2021/06/23 12:43:45;;;;;;;15.38;4.78;;;;;;;0.01;0.00;59042.03;10312828;28;20044;-54
2021/06/23 12:48:44;;;;;;;23.52;4.88;;;;;;;0.01;0.00;59042.03;10276025;28;20052;-52
2021/06/23 12:53:43;;;;;;;18.63;5.40;;;;;;;0.01;0.00;59042.03;10276592;28;20524;-55
2021/06/23 12:58:43;;;;;;;21.80;5.78;;;;;;;0.01;0.00;59042.03;10316229;28;20423;-55
2021/06/23 13:03:42;;;;;;;22.70;6.25;;;;;;;0.01;0.00;59042.03;10288031;28;20049;-55
2021/06/23 13:08:41;;;;;;;17.63;6.20;;;;;;;0.01;0.00;59042.03;10314929;28;20108;-56
2021/06/23 13:13:40;;;;;;;24.73;6.68;;;;;;;0.01;0.00;59042.03;10315756;28;20051;-54
2021/06/23 13:18:41;;;;;;;19.23;5.10;;;;;;;0.01;0.00;59042.03;10274797;28;20045;-54
2021/06/23 13:23:39;;;;;;;15.90;5.70;;;;;;;0.01;0.00;59042.03;10314833;28;20090;-51
2021/06/23 13:28:40;;;;;;;23.38;6.15;;;;;;;0.01;0.00;59042.03;10314267;28;20075;-56
2021/06/23 13:33:41;;;;;;;21.25;6.28;;;;;;;0.01;0.00;59042.03;10314400;28;20048;-56
2021/06/23 13:38:39;;;;;;;14.70;5.28;;;;;;;0.01;0.00;59042.03;10312786;28;20076;-53
2021/06/23 13:43:39;;;;;;;18.05;5.38;;;;;;;0.01;0.00;59042.03;10274072;28;20518;-54
2021/06/23 13:48:38;;;;;;;19.73;5.30;;;;;;;0.01;0.00;59042.03;10314155;28;20080;-48
2021/06/23 13:53:38;;;;;;;23.42;5.65;;;;;;;0.01;0.00;59042.03;10314937;28;20044;-56
2021/06/23 13:58:37;;;;;;;24.23;6.05;;;;;;;0.01;0.00;59042.03;10314857;28;20040;-54
2021/06/23 14:03:36;;;;;;;22.10;5.63;;;;;;;0.01;0.00;59042.03;10314556;28;20513;-50
2021/06/23 14:08:35;;;;;;;17.35;5.22;;;;;;;0.01;0.00;59042.03;10306866;28;20467;-57
2021/06/23 14:13:35;;;;;;;19.95;6.50;;;;;;;0.01;0.00;59042.03;10307541;28;20075;-56
2021/06/23 14:18:34;;;;;;;21.30;6.00;;;;;;;0.01;0.00;59042.03;10308388;28;20513;-54
2021/06/23 14:23:36;;;;;;;22.27;5.15;;;;;;;0.01;0.00;59042.03;10311772;28;20080;-56
2021/06/23 14:28:37;;;;;;;17.25;5.68;;;;;;;0.01;0.00;59042.03;10312703;28;20091;-56
2021/06/23 14:33:36;;;;;;;18.52;5.18;;;;;;;0.01;0.00;59042.03;10314161;28;20510;-56
2021/06/23 14:38:34;;;;;;;26.08;7.20;;;;;;;0.01;0.00;59042.03;10314018;28;20071;-54
2021/06/23 14:43:34;;;;;;;20.73;6.13;;;;;;;0.01;0.00;59042.03;10313456;28;20084;-56
2021/06/23 14:48:34;;;;;;;29.45;6.22;;;;;;;0.01;0.00;59042.03;10314053;28;20072;-55
2021/06/23 14:53:34;;;;;;;25.10;7.18;;;;;;;0.01;0.00;59042.03;10317039;28;20102;-56
2021/06/23 14:58:32;;;;;;;20.40;5.63;;;;;;;0.01;0.00;59042.03;10313199;28;20080;-56
2021/06/23 15:03:31;;;;;;;16.00;6.05;;;;;;;0.01;0.00;59042.03;10315051;28;20087;-55
2021/06/23 15:08:32;;;;;;;20.33;8.40;;;;;;;0.01;0.00;59042.03;10298642;28;20048;-55
2021/06/23 15:13:30;;;;;;;25.80;7.30;;;;;;;0.01;0.00;59042.03;10318963;28;20071;-55
2021/06/23 15:18:29;;;;;;;22.05;7.70;;;;;;;0.01;0.00;59042.03;10302807;28;20079;-53
2021/06/23 15:23:28;;;;;;;20.73;6.47;;;;;;;0.01;0.00;59042.03;10281536;28;20081;-51
2021/06/23 15:28:29;;;;;;;27.67;6.68;;;;;;;0.01;0.00;59042.03;10316610;28;20395;-55
2021/06/23 15:33:28;;;;;;;22.33;6.75;;;;;;;0.01;0.00;59042.03;10318210;28;20079;-55
2021/06/23 15:38:34;;;;;;;18.58;5.90;;;;;;;0.01;0.00;59042.03;10314580;28;20159;-56
2021/06/23 15:43:34;;;;;;;24.35;9.25;;;;;;;0.01;0.00;59042.03;10316376;28;20084;-56
2021/06/23 15:48:33;;;;;;;20.05;7.80;;;;;;;0.01;0.00;59042.03;10318000;28;20048;-55
2021/06/23 15:53:32;;;;;;;36.00;11.82;;;;;;;0.01;0.00;59042.03;10301049;28;20060;-56
2021/06/23 15:58:33;;;;;;;21.65;9.40;;;;;;;0.01;0.00;59042.03;10297075;28;20076;-56
2021/06/23 16:03:33;;;;;;;19.50;8.65;;;;;;;0.01;0.00;59042.03;10288776;28;20087;-55
2021/06/23 16:08:32;;;;;;;21.27;6.55;;;;;;;0.01;0.00;59042.03;10277009;28;20633;-56
2021/06/23 16:13:31;;;;;;;36.05;9.48;;;;;;;0.01;0.00;59042.03;10307148;28;20045;-56
2021/06/23 16:18:31;;;;;;;16.85;8.10;;;;;;;0.01;0.00;59042.03;10308362;28;20068;-57
2021/06/23 16:23:33;;;;;;;19.60;8.15;;;;;;;0.01;0.00;59042.03;10287847;28;20084;-56
2021/06/23 16:28:32;;;;;;;26.33;8.98;;;;;;;0.01;0.00;59042.03;10306830;28;20052;-55
2021/06/23 16:33:30;;;;;;;21.15;9.52;;;;;;;0.01;0.00;59042.03;10316473;28;20049;-56
2021/06/23 16:38:31;;;;;;;21.00;8.98;;;;;;;0.01;0.00;59042.03;10316477;28;20040;-55
2021/06/23 16:43:30;;;;;;;20.58;8.07;;;;;;;0.01;0.00;59042.03;10316606;28;20087;-58
2021/06/23 16:48:29;;;;;;;20.65;7.47;;;;;;;0.01;0.00;59042.03;10316046;28;20045;-58
2021/06/23 16:53:27;;;;;;;19.27;6.18;;;;;;;0.01;0.00;59042.03;10286303;28;20503;-58
2021/06/23 16:58:30;;;;;;;16.33;6.30;;;;;;;0.01;0.00;59042.03;10304164;28;20075;-58
2021/06/23 17:03:29;;;;;;;17.30;6.17;;;;;;;0.01;0.00;59042.03;10310671;28;20486;-54
2021/06/23 17:08:28;;;;;;;16.15;6.80;;;;;;;0.01;0.00;59042.03;10315367;28;20071;-58
2021/06/23 17:13:29;;;;;;;26.52;6.80;;;;;;;0.01;0.00;59042.03;10313832;28;20139;-58
2021/06/23 17:18:27;;;;;;;22.65;10.90;;;;;;;0.01;0.00;59042.03;10314625;28;20238;-58
2021/06/23 17:23:27;;;;;;;22.70;8.02;;;;;;;0.01;0.00;59042.03;10315546;28;20508;-58
2021/06/23 17:28:26;;;;;;;16.35;6.60;;;;;;;0.01;0.00;59042.03;10311780;28;20068;-58
2021/06/23 17:33:26;;;;;;;17.83;8.35;;;;;;;0.01;0.00;59042.03;10280459;28;20539;-58
2021/06/23 17:38:25;;;;;;;23.05;9.20;;;;;;;0.01;0.00;59042.03;10303169;28;20076;-59
2021/06/23 17:43:27;;;;;;;21.67;8.85;;;;;;;0.01;0.00;59042.03;10311991;28;20072;-59
2021/06/23 17:48:27;;;;;;;22.70;8.98;;;;;;;0.01;0.00;59042.03;10315620;28;20048;-60
2021/06/23 17:53:27;;;;;;;21.88;9.02;;;;;;;0.01;0.00;59042.03;10314832;28;20037;-59
2021/06/23 17:58:28;;;;;;;26.20;8.98;;;;;;;0.01;0.00;59042.03;10315710;28;20052;-58
2021/06/23 18:03:29;;;;;;;25.05;14.45;;;;;;;0.01;0.00;59042.03;10314886;28;20473;-58
2021/06/23 18:08:29;;;;;;;22.25;6.43;;;;;;;0.01;0.00;59042.03;10314468;28;20072;-59
2021/06/23 18:13:27;;;;;;;17.15;6.15;;;;;;;0.01;0.00;59042.03;10313697;28;20079;-57
2021/06/23 18:18:28;;;;;;;17.65;6.90;;;;;;;0.01;0.00;59042.03;10315669;28;20048;-58
2021/06/23 18:23:28;;;;;;;22.58;9.52;;;;;;;0.01;0.00;59042.03;10314591;28;20087;-58
2021/06/23 18:28:27;;;;;;;25.67;13.52;;;;;;;0.01;0.00;59042.03;10298484;28;20498;-58
2021/06/23 18:33:26;;;;;;;17.48;6.32;;;;;;;0.01;0.00;59042.03;10315966;28;20449;-58
2021/06/23 18:38:26;;;;;;;19.13;6.53;;;;;;;0.01;0.00;59042.03;10321500;28;20056;-56
2021/06/23 18:43:25;;;;;;;18.13;6.50;;;;;;;0.01;0.00;59042.03;10319974;28;20093;-58
2021/06/23 18:48:24;;;;;;;19.00;7.07;;;;;;;0.01;0.00;59042.03;10310329;28;20072;-58
2021/06/23 18:53:23;;;;;;;23.02;7.25;;;;;;;0.01;0.00;59042.03;10321264;28;20481;-58
2021/06/23 18:58:23;;;;;;;18.67;7.25;;;;;;;0.01;0.00;59042.03;10320770;28;20048;-58
2021/06/23 19:03:22;;;;;;;21.67;6.55;;;;;;;0.01;0.00;59042.03;10320551;28;20099;-58
2021/06/23 19:08:23;;;;;;;24.30;7.63;;;;;;;0.01;0.00;59042.03;10321320;28;20041;-58
2021/06/23 19:13:23;;;;;;;18.83;6.45;;;;;;;0.01;0.00;59042.03;10320918;28;20122;-58
2021/06/23 19:18:22;;;;;;;27.25;6.80;;;;;;;0.01;0.00;59042.03;10320771;28;20416;-58
2021/06/23 19:23:41;;;;;;;17.48;7.07;;;;;;;0.01;0.00;59042.03;10320444;28;20103;-58
2021/06/23 19:28:41;;;;;;;20.08;6.43;;;;;;;0.01;0.00;59042.03;10318883;28;20407;-57
2021/06/23 19:33:40;;;;;;;22.08;8.07;;;;;;;0.01;0.00;59042.03;10318509;28;20083;-58
2021/06/23 19:38:39;;;;;;;21.83;11.60;;;;;;;0.01;0.00;59042.03;10311081;28;20071;-58
2021/06/23 19:43:38;;;;;;;47.47;27.00;;;;;;;0.01;0.00;59042.03;10306684;28;20071;-56
2021/06/23 19:48:38;;;;;;;21.85;10.35;;;;;;;0.01;0.00;59042.03;10310642;28;20083;-53
2021/06/23 19:53:37;;;;;;;21.42;9.60;;;;;;;0.01;0.00;59042.03;10316664;28;21021;-58
2021/06/23 19:58:36;;;;;;;24.52;9.70;;;;;;;0.01;0.00;59042.03;10314371;28;20079;-58
2021/06/23 20:03:37;;;;;;;23.23;11.57;;;;;;;0.01;0.00;59042.03;10312142;28;20083;-58
2021/06/23 20:08:37;;;;;;;21.15;6.30;;;;;;;0.01;0.00;59042.03;10306858;28;20076;-57
2021/06/23 20:13:36;;;;;;;22.08;9.50;;;;;;;0.01;0.00;59042.03;10306671;28;20082;-58
2021/06/23 20:18:35;;;;;;;27.80;9.70;;;;;;;0.01;0.00;59042.03;10312629;28;20538;-57
2021/06/23 20:23:34;;;;;;;18.75;7.43;;;;;;;0.01;0.00;59042.03;10315554;28;20075;-58
2021/06/23 20:28:34;;;;;;;16.48;7.03;;;;;;;0.01;0.00;59042.03;10316807;28;20425;-58
2021/06/23 20:33:33;;;;;;;23.92;6.68;;;;;;;0.01;0.00;59042.03;10317377;28;20461;-58
2021/06/23 20:38:32;;;;;;;16.13;6.30;;;;;;;0.01;0.00;59042.03;10315960;28;20528;-58
2021/06/23 20:43:31;;;;;;;20.27;6.75;;;;;;;0.01;0.00;59042.03;10316799;28;20080;-57
2021/06/23 20:48:31;;;;;;;13.82;5.75;;;;;;;0.01;0.00;59042.03;10317637;28;20398;-58
2021/06/23 20:53:30;;;;;;;16.60;6.90;;;;;;;0.01;0.00;59042.03;10317019;28;20045;-57
2021/06/23 20:58:29;;;;;;;18.88;6.60;;;;;;;0.01;0.00;59042.03;10317241;28;20055;-57
2021/06/23 21:03:28;;;;;;;16.05;6.22;;;;;;;0.01;0.00;59042.03;10314920;28;20474;-57
2021/06/23 21:08:40;;;;;;;19.70;6.32;;;;;;;0.01;0.00;59042.03;10313723;28;20147;-58
2021/06/23 21:13:40;;;;;;;18.55;5.60;;;;;;;0.01;0.00;59042.03;10315985;28;20080;-55
2021/06/23 21:18:39;;;;;;;17.30;5.93;;;;;;;0.01;0.00;59042.03;10315329;28;20504;-57
2021/06/23 21:23:42;;;;;;;19.75;6.57;;;;;;;0.01;0.00;59042.03;10316415;28;20079;-58
2021/06/23 21:28:45;;;;;;;21.88;6.13;;;;;;;0.01;0.00;59042.03;10315657;28;20052;-56
2021/06/23 21:33:44;;;;;;;17.52;6.45;;;;;;;0.01;0.00;59042.03;10316570;28;20044;-57
2021/06/23 21:39:06;;;;;;;30.23;6.43;;;;;;;0.01;0.00;59042.03;10315170;28;20052;-58
2021/06/23 21:44:07;;;;;;;20.17;6.38;;;;;;;0.01;0.00;59042.03;10316071;28;20076;-58
2021/06/23 21:49:21;;;;;;;21.05;6.97;;;;;;;0.01;0.00;59042.03;10315883;28;20048;-58
2021/06/23 21:54:32;;;;;;;14.60;5.18;;;;;;;0.01;0.00;59042.03;10315633;28;20045;-57
2021/06/23 21:59:32;;;;;;;18.42;6.80;;;;;;;0.01;0.00;59042.03;10315763;28;20429;-59
2021/06/23 22:04:31;;;;;;;18.10;6.97;;;;;;;0.01;0.00;59042.03;10322120;28;20068;-59
2021/06/23 22:09:39;;;;;;;17.90;6.15;;;;;;;0.01;0.00;59042.03;10324268;28;20052;-59
2021/06/23 22:14:37;;;;;;;20.10;6.40;;;;;;;0.01;0.00;59042.03;10323507;28;20048;-59
2021/06/23 22:19:36;;;;;;;26.98;6.40;;;;;;;0.01;0.00;59042.03;10323272;28;20072;-59
2021/06/23 22:24:38;;;;;;;19.45;6.57;;;;;;;0.01;0.00;59042.03;10323047;28;20080;-61
2021/06/23 22:29:37;;;;;;;16.55;6.05;;;;;;;0.01;0.00;59042.03;10322023;28;20080;-60
2021/06/23 22:34:37;;;;;;;14.30;6.05;;;;;;;0.01;0.00;59042.03;10323137;28;20048;-61
2021/06/23 22:39:39;;;;;;;14.90;6.45;;;;;;;0.01;0.00;59042.03;10322330;28;20493;-61
2021/06/23 22:44:49;;;;;;;13.18;5.80;;;;;;;0.01;0.00;59042.03;10322088;28;20080;-61
2021/06/23 22:49:56;;;;;;;13.45;6.20;;;;;;;0.01;0.00;59042.03;10321715;28;20473;-61
2021/06/23 22:55:13;;;;;;;14.57;5.95;;;;;;;0.01;0.00;59042.03;10322571;28;20051;-61
2021/06/23 23:00:13;;;;;;;16.65;6.40;;;;;;;0.01;0.00;59042.03;10323032;28;20071;-61
2021/06/23 23:05:13;;;;;;;16.75;6.53;;;;;;;0.01;0.00;59042.03;10321019;28;20081;-61
2021/06/23 23:10:14;;;;;;;14.32;5.60;;;;;;;0.01;0.00;59042.03;10322259;28;20072;-60
2021/06/23 23:15:14;;;;;;;16.63;6.05;;;;;;;0.01;0.00;59042.03;10321336;28;20045;-61
2021/06/23 23:20:13;;;;;;;19.00;5.82;;;;;;;0.01;0.00;59042.03;10321883;28;20044;-61
2021/06/23 23:25:17;;;;;;;14.90;6.10;;;;;;;0.01;0.00;59042.03;10321583;28;20175;-61
2021/06/23 23:30:18;;;;;;;15.93;6.35;;;;;;;0.01;0.00;59042.03;10320473;28;20091;-61
2021/06/23 23:35:17;;;;;;;13.70;5.53;;;;;;;0.01;0.00;59042.03;10321176;28;20051;-61
2021/06/23 23:40:17;;;;;;;16.33;5.22;;;;;;;0.01;0.00;59042.03;10321171;28;20071;-61
2021/06/23 23:45:17;;;;;;;15.52;5.50;;;;;;;0.01;0.00;59042.03;10320130;28;20068;-61
2021/06/23 23:50:15;;;;;;;15.90;4.97;;;;;;;0.01;0.00;59042.03;10320548;28;20064;-61